Time;durP1;ratioP1;P1;durP2;ratioP2;P2;SDS_P1;SDS_P2;PMS_P1;PMS_P2;Temp;Humidity;BMP_temperature;BMP_pressure;BME280_temperature;BME280_humidity;BME280_pressure;Samples;Min_cycle;Max_cycle;Signal;HPM_P1;HPM_P2
2023/11/12 00:01:50;;;;;;;41.42;28.42;;;;;;;;;;5052746;28;20033;-48
2023/11/12 00:04:18;;;;;;;47.05;29.40;;;;;;;;;;5037192;28;20036;-47
2023/11/12 00:06:47;;;;;;;45.92;29.88;;;;;;;;;;5075670;28;20081;-46
2023/11/12 00:09:14;;;;;;;43.83;28.77;;;;;;;;;;5074603;28;20027;-46
2023/11/12 00:11:40;;;;;;;47.40;30.45;;;;;;;;;;5061393;28;20088;-47
2023/11/12 00:14:06;;;;;;;44.53;29.25;;;;;;;;;;5071444;28;20393;-45
2023/11/12 00:16:33;;;;;;;46.00;30.70;;;;;;;;;;5072967;28;20545;-46
2023/11/12 00:19:04;;;;;;;52.30;31.00;;;;;;;;;;5061101;28;20029;-47
2023/11/12 00:21:30;;;;;;;43.70;29.45;;;;;;;;;;5069653;28;20037;-46
2023/11/12 00:23:56;;;;;;;45.90;29.70;;;;;;;;;;5074034;28;20028;-46
2023/11/12 00:26:22;;;;;;;51.17;30.10;;;;;;;;;;5056168;28;20040;-48
2023/11/12 00:28:52;;;;;;;50.05;31.98;;;;;;;;;;5072469;28;20036;-46
2023/11/12 00:31:21;;;;;;;55.92;32.05;;;;;;;;;;5061983;28;20486;-47
2023/11/12 00:33:47;;;;;;;53.00;32.22;;;;;;;;;;5053699;28;20025;-47
2023/11/12 00:36:14;;;;;;;49.40;31.67;;;;;;;;;;5038229;28;20040;-47
2023/11/12 00:38:40;;;;;;;47.00;32.42;;;;;;;;;;5072232;28;20089;-46
2023/11/12 00:41:08;;;;;;;53.53;34.10;;;;;;;;;;5059216;28;20087;-46
2023/11/12 00:43:34;;;;;;;52.97;31.95;;;;;;;;;;5073620;28;20028;-47
2023/11/12 00:46:01;;;;;;;61.65;35.03;;;;;;;;;;5065908;28;20463;-47
2023/11/12 00:48:27;;;;;;;56.88;34.88;;;;;;;;;;5037793;28;20119;-48
2023/11/12 00:50:53;;;;;;;51.55;32.30;;;;;;;;;;5051268;28;20371;-45
2023/11/12 00:53:20;;;;;;;57.92;33.80;;;;;;;;;;5026522;28;20175;-46
2023/11/12 00:55:46;;;;;;;56.55;36.20;;;;;;;;;;5065136;28;20553;-47
2023/11/12 00:58:12;;;;;;;57.22;33.95;;;;;;;;;;5074757;28;20026;-45
2023/11/12 01:00:41;;;;;;;49.05;33.13;;;;;;;;;;5034323;28;20487;-46
2023/11/12 01:03:08;;;;;;;52.63;33.33;;;;;;;;;;5040528;28;20050;-47
2023/11/12 01:05:35;;;;;;;49.85;32.28;;;;;;;;;;5069699;28;20028;-47
2023/11/12 01:08:01;;;;;;;47.92;31.48;;;;;;;;;;5062597;28;20036;-47
2023/11/12 01:10:28;;;;;;;48.03;30.40;;;;;;;;;;5054605;28;20039;-47
2023/11/12 01:12:55;;;;;;;51.83;34.17;;;;;;;;;;5059095;28;20101;-47
2023/11/12 01:15:21;;;;;;;57.00;33.65;;;;;;;;;;5069048;28;20036;-46
2023/11/12 01:17:47;;;;;;;49.83;31.83;;;;;;;;;;5036075;28;20025;-46
2023/11/12 01:20:14;;;;;;;54.63;31.65;;;;;;;;;;5044409;28;20044;-47
2023/11/12 01:22:42;;;;;;;48.30;31.42;;;;;;;;;;5054300;28;20041;-47
2023/11/12 01:25:08;;;;;;;49.55;32.17;;;;;;;;;;5038574;28;20025;-48
2023/11/12 01:27:35;;;;;;;49.10;30.88;;;;;;;;;;5052471;28;20070;-47
2023/11/12 01:30:01;;;;;;;51.67;30.95;;;;;;;;;;5036320;28;20354;-47
2023/11/12 01:32:27;;;;;;;50.30;31.92;;;;;;;;;;5067187;28;20021;-45
2023/11/12 01:34:55;;;;;;;50.70;31.88;;;;;;;;;;5034249;28;20033;-47
2023/11/12 01:37:21;;;;;;;49.42;31.55;;;;;;;;;;5053166;28;20032;-46
2023/11/12 01:39:48;;;;;;;49.88;29.98;;;;;;;;;;5026752;28;20119;-46
2023/11/12 01:42:14;;;;;;;46.53;31.58;;;;;;;;;;5023185;28;20025;-46
2023/11/12 01:44:43;;;;;;;49.85;32.88;;;;;;;;;;5043003;28;20081;-48
2023/11/12 01:47:11;;;;;;;50.10;31.52;;;;;;;;;;5064768;28;20028;-47
2023/11/12 01:49:38;;;;;;;51.60;31.50;;;;;;;;;;5074668;28;20031;-49
2023/11/12 01:52:05;;;;;;;50.15;34.10;;;;;;;;;;5092600;28;20032;-47
2023/11/12 01:54:32;;;;;;;51.38;32.85;;;;;;;;;;5069045;28;20142;-48
2023/11/12 01:56:59;;;;;;;55.50;34.25;;;;;;;;;;5038348;28;20028;-47
2023/11/12 01:59:30;;;;;;;60.55;34.85;;;;;;;;;;5038142;28;20028;-47
2023/11/12 02:01:56;;;;;;;58.65;35.67;;;;;;;;;;5054418;28;20066;-46
2023/11/12 02:04:23;;;;;;;62.93;36.00;;;;;;;;;;5050261;28;20055;-47
2023/11/12 02:06:49;;;;;;;57.75;35.75;;;;;;;;;;5074489;28;20082;-48
2023/11/12 02:09:16;;;;;;;55.00;35.05;;;;;;;;;;5067290;28;20040;-48
2023/11/12 02:11:43;;;;;;;60.10;37.43;;;;;;;;;;5065923;28;20036;-47
2023/11/12 02:14:09;;;;;;;58.15;36.75;;;;;;;;;;5069368;28;20029;-47
2023/11/12 02:16:35;;;;;;;60.13;37.58;;;;;;;;;;5041428;28;20123;-47
2023/11/12 02:19:01;;;;;;;56.05;35.47;;;;;;;;;;5037095;28;20387;-46
2023/11/12 02:21:32;;;;;;;58.47;34.37;;;;;;;;;;5044661;28;20041;-46
2023/11/12 02:23:58;;;;;;;54.70;32.85;;;;;;;;;;5044905;28;20609;-46
2023/11/12 02:26:25;;;;;;;56.88;34.53;;;;;;;;;;5071509;28;20150;-46
2023/11/12 02:28:51;;;;;;;52.58;35.53;;;;;;;;;;5070646;28;20036;-46
2023/11/12 02:31:17;;;;;;;53.33;33.83;;;;;;;;;;5061227;28;20033;-48
2023/11/12 02:33:43;;;;;;;50.83;34.90;;;;;;;;;;5060285;28;20376;-46
2023/11/12 02:36:10;;;;;;;50.37;33.13;;;;;;;;;;5058705;28;20478;-47
2023/11/12 02:38:36;;;;;;;52.70;32.47;;;;;;;;;;5068979;28;20278;-47
2023/11/12 02:41:02;;;;;;;50.17;32.50;;;;;;;;;;5036472;28;20299;-47
2023/11/12 02:43:29;;;;;;;51.63;31.95;;;;;;;;;;5045646;28;20124;-47
2023/11/12 02:45:55;;;;;;;49.08;32.70;;;;;;;;;;5055940;28;20029;-47
2023/11/12 02:48:22;;;;;;;48.20;31.00;;;;;;;;;;5051343;28;20437;-47
2023/11/12 02:50:48;;;;;;;59.08;32.20;;;;;;;;;;5069492;28;20016;-47
2023/11/12 02:53:14;;;;;;;57.42;32.75;;;;;;;;;;5067098;28;20020;-48
2023/11/12 02:55:40;;;;;;;50.00;31.33;;;;;;;;;;5070055;28;20486;-47
2023/11/12 02:58:07;;;;;;;53.00;31.40;;;;;;;;;;5053490;28;20028;-47
2023/11/12 03:00:33;;;;;;;52.78;31.90;;;;;;;;;;5026209;28;20407;-46
2023/11/12 03:03:01;;;;;;;45.90;32.00;;;;;;;;;;5056684;28;20044;-47
2023/11/12 03:05:27;;;;;;;48.40;30.90;;;;;;;;;;5072416;28;20032;-46
2023/11/12 03:07:54;;;;;;;49.92;32.33;;;;;;;;;;5084267;28;20016;-46
2023/11/12 03:10:20;;;;;;;53.78;35.78;;;;;;;;;;5033413;28;20036;-47
2023/11/12 03:12:47;;;;;;;52.83;34.25;;;;;;;;;;5049648;28;20108;-47
2023/11/12 03:15:13;;;;;;;55.22;34.08;;;;;;;;;;5066395;28;20039;-47
2023/11/12 03:17:40;;;;;;;51.50;30.97;;;;;;;;;;5033511;28;20051;-47
2023/11/12 03:20:09;;;;;;;53.58;31.00;;;;;;;;;;5033573;28;20032;-47
2023/11/12 03:22:36;;;;;;;52.03;32.88;;;;;;;;;;5034637;28;20415;-46
2023/11/12 03:25:08;;;;;;;47.70;32.40;;;;;;;;;;5060182;28;20044;-47
2023/11/12 03:27:34;;;;;;;50.45;32.05;;;;;;;;;;5049799;28;20140;-47
2023/11/12 03:30:01;;;;;;;49.97;32.00;;;;;;;;;;5045544;28;20028;-47
2023/11/12 03:32:27;;;;;;;54.78;32.78;;;;;;;;;;5039207;28;20021;-47
2023/11/12 03:34:54;;;;;;;53.45;35.30;;;;;;;;;;5056152;28;20517;-47
2023/11/12 03:37:20;;;;;;;51.53;33.43;;;;;;;;;;5042670;28;20439;-46
2023/11/12 03:39:50;;;;;;;50.65;30.83;;;;;;;;;;5069636;28;20066;-47
2023/11/12 03:42:17;;;;;;;50.58;32.78;;;;;;;;;;5067208;28;20580;-47
2023/11/12 03:44:43;;;;;;;49.25;32.30;;;;;;;;;;5074656;28;20032;-46
2023/11/12 03:47:10;;;;;;;49.47;32.35;;;;;;;;;;5059621;28;20121;-46
2023/11/12 03:49:37;;;;;;;47.88;30.77;;;;;;;;;;5037056;28;20079;-48
2023/11/12 03:52:03;;;;;;;48.17;32.42;;;;;;;;;;5047460;28;20017;-47
2023/11/12 03:54:30;;;;;;;;;;;;;;;;;;5056282;28;20025;-46
2023/11/12 03:56:56;;;;;;;47.63;31.92;;;;;;;;;;5063093;28;19915;-47
2023/11/12 03:59:22;;;;;;;47.90;30.35;;;;;;;;;;5073267;28;20036;-46
2023/11/12 04:01:48;;;;;;;47.95;30.80;;;;;;;;;;5044468;28;20048;-45
2023/11/12 04:04:14;;;;;;;49.78;31.67;;;;;;;;;;5094059;28;20506;-47
2023/11/12 04:06:41;;;;;;;50.93;32.50;;;;;;;;;;5076873;28;20052;-47
2023/11/12 04:09:08;;;;;;;49.05;32.08;;;;;;;;;;5094898;28;20043;-47
2023/11/12 04:11:40;;;;;;;49.08;31.73;;;;;;;;;;5094603;28;20040;-47
2023/11/12 04:14:07;;;;;;;44.28;30.40;;;;;;;;;;5094862;28;20116;-47
2023/11/12 04:16:34;;;;;;;48.30;30.65;;;;;;;;;;5094906;28;20103;-47
2023/11/12 04:19:02;;;;;;;48.13;32.85;;;;;;;;;;5094671;28;20028;-46
2023/11/12 04:21:29;;;;;;;51.47;34.80;;;;;;;;;;5076885;28;20062;-47
2023/11/12 04:23:55;;;;;;;49.92;32.22;;;;;;;;;;5076234;28;20028;-47
2023/11/12 04:26:22;;;;;;;51.43;33.53;;;;;;;;;;5094222;28;20371;-47
2023/11/12 04:28:48;;;;;;;47.33;32.33;;;;;;;;;;5094482;28;20031;-46
2023/11/12 04:31:14;;;;;;;48.28;31.30;;;;;;;;;;5059578;28;20032;-47
2023/11/12 04:33:40;;;;;;;51.92;34.17;;;;;;;;;;5072113;28;20033;-47
2023/11/12 04:36:07;;;;;;;58.40;34.47;;;;;;;;;;5064983;28;20028;-46
2023/11/12 04:38:33;;;;;;;;;;;;;;;;;;5051341;28;20028;-46
2023/11/12 04:41:00;;;;;;;51.70;33.55;;;;;;;;;;5055833;28;19963;-47
2023/11/12 04:43:26;;;;;;;54.53;34.53;;;;;;;;;;5054009;28;20071;-46
2023/11/12 04:45:52;;;;;;;48.92;33.03;;;;;;;;;;5068016;28;20462;-47
2023/11/12 04:48:18;;;;;;;55.17;34.45;;;;;;;;;;5072385;28;20029;-46
2023/11/12 04:50:45;;;;;;;56.08;34.65;;;;;;;;;;5070159;28;20025;-46
2023/11/12 04:53:11;;;;;;;50.10;33.60;;;;;;;;;;5043886;28;20024;-47
2023/11/12 04:55:38;;;;;;;53.57;33.97;;;;;;;;;;5073271;28;20029;-47
2023/11/12 04:58:06;;;;;;;51.78;33.33;;;;;;;;;;5071616;28;20270;-48
2023/11/12 05:00:32;;;;;;;55.15;35.28;;;;;;;;;;5045474;28;20378;-47
2023/11/12 05:03:01;;;;;;;55.22;33.85;;;;;;;;;;5061204;28;20410;-46
2023/11/12 05:05:27;;;;;;;53.90;34.88;;;;;;;;;;5061716;28;20055;-47
2023/11/12 05:07:53;;;;;;;59.38;35.17;;;;;;;;;;5054509;28;20044;-47
2023/11/12 05:10:20;;;;;;;54.78;33.33;;;;;;;;;;5028318;28;20041;-47
2023/11/12 05:12:46;;;;;;;50.53;33.67;;;;;;;;;;5046212;28;20476;-47
2023/11/12 05:15:12;;;;;;;52.58;34.65;;;;;;;;;;5054268;28;20025;-47
2023/11/12 05:17:38;;;;;;;56.97;35.22;;;;;;;;;;5073068;28;20021;-47
2023/11/12 05:20:05;;;;;;;54.90;35.42;;;;;;;;;;5047978;28;20064;-46
2023/11/12 05:22:32;;;;;;;54.85;34.78;;;;;;;;;;5054027;28;20495;-47
2023/11/12 05:24:58;;;;;;;58.70;35.47;;;;;;;;;;5042253;28;20098;-47
2023/11/12 05:27:24;;;;;;;58.47;35.15;;;;;;;;;;5054380;28;20033;-47
2023/11/12 05:29:52;;;;;;;58.15;37.00;;;;;;;;;;5039308;28;20036;-49
2023/11/12 05:32:18;;;;;;;60.53;38.17;;;;;;;;;;5056121;28;20029;-48
2023/11/12 05:34:44;;;;;;;55.20;35.30;;;;;;;;;;5063280;28;20071;-47
2023/11/12 05:37:11;;;;;;;58.28;34.88;;;;;;;;;;5040744;28;20031;-46
2023/11/12 05:39:37;;;;;;;63.53;37.17;;;;;;;;;;5040559;28;20036;-47
2023/11/12 05:42:03;;;;;;;59.83;38.67;;;;;;;;;;5072416;28;20029;-47
2023/11/12 05:44:29;;;;;;;55.72;35.75;;;;;;;;;;5052706;28;20025;-47
2023/11/12 05:46:56;;;;;;;56.72;34.58;;;;;;;;;;5065884;28;20251;-47
2023/11/12 05:49:22;;;;;;;59.25;38.35;;;;;;;;;;5017994;28;20029;-48
2023/11/12 05:51:48;;;;;;;58.20;36.15;;;;;;;;;;5068602;28;20041;-47
2023/11/12 05:54:14;;;;;;;65.80;38.08;;;;;;;;;;5051932;28;20029;-47
2023/11/12 05:56:40;;;;;;;60.45;36.58;;;;;;;;;;5034050;28;20028;-47
2023/11/12 05:59:06;;;;;;;54.63;35.03;;;;;;;;;;5052902;28;20021;-48
2023/11/12 06:01:32;;;;;;;55.03;36.70;;;;;;;;;;5066678;28;20021;-47
2023/11/12 06:04:00;;;;;;;57.53;36.63;;;;;;;;;;5037766;28;20100;-48
2023/11/12 06:06:26;;;;;;;60.78;38.97;;;;;;;;;;5047841;28;20039;-47
2023/11/12 06:08:52;;;;;;;62.28;37.78;;;;;;;;;;5053696;28;20118;-47
2023/11/12 06:11:20;;;;;;;55.42;35.35;;;;;;;;;;5029472;28;20478;-47
2023/11/12 06:13:46;;;;;;;62.17;36.53;;;;;;;;;;5033529;28;20167;-49
2023/11/12 06:16:13;;;;;;;60.53;38.58;;;;;;;;;;5056289;28;20033;-46
2023/11/12 06:18:39;;;;;;;58.33;36.83;;;;;;;;;;5069952;28;20117;-46
2023/11/12 06:21:05;;;;;;;65.20;44.70;;;;;;;;;;5068174;28;20037;-47
2023/11/12 06:23:31;;;;;;;68.00;43.38;;;;;;;;;;5035939;28;20025;-47
2023/11/12 06:25:57;;;;;;;61.05;38.90;;;;;;;;;;5016928;28;20131;-47
2023/11/12 06:28:24;;;;;;;67.10;41.20;;;;;;;;;;5050654;28;20467;-47
2023/11/12 06:30:53;;;;;;;57.40;37.63;;;;;;;;;;5058520;28;20541;-47
2023/11/12 06:33:21;;;;;;;63.60;40.40;;;;;;;;;;5070274;28;20025;-47
2023/11/12 06:35:47;;;;;;;63.30;41.13;;;;;;;;;;5043884;28;20036;-47
2023/11/12 06:38:13;;;;;;;62.65;40.65;;;;;;;;;;5044593;28;20033;-47
2023/11/12 06:40:39;;;;;;;62.55;39.03;;;;;;;;;;5067322;28;20033;-47
2023/11/12 06:43:06;;;;;;;59.15;37.85;;;;;;;;;;5057646;28;20060;-47
2023/11/12 06:45:32;;;;;;;60.53;38.20;;;;;;;;;;5063342;28;20391;-47
2023/11/12 06:47:58;;;;;;;59.22;37.85;;;;;;;;;;5051773;28;20108;-46
2023/11/12 06:50:24;;;;;;;62.65;38.28;;;;;;;;;;5060614;28;20036;-47
2023/11/12 06:52:50;;;;;;;63.30;38.83;;;;;;;;;;5061528;28;20021;-47
2023/11/12 06:55:17;;;;;;;63.42;40.17;;;;;;;;;;5066675;28;20078;-47
2023/11/12 06:57:43;;;;;;;66.55;40.83;;;;;;;;;;5041485;28;20352;-47
2023/11/12 07:00:10;;;;;;;77.40;44.30;;;;;;;;;;5067017;28;20036;-47
2023/11/12 07:02:37;;;;;;;79.38;45.38;;;;;;;;;;5063998;28;20066;-47
2023/11/12 07:05:04;;;;;;;77.32;42.67;;;;;;;;;;5073337;28;20501;-49
2023/11/12 07:07:31;;;;;;;85.20;44.50;;;;;;;;;;5083162;28;20048;-47
2023/11/12 07:09:58;;;;;;;82.00;45.08;;;;;;;;;;5051373;28;20028;-46
2023/11/12 07:12:24;;;;;;;76.33;45.50;;;;;;;;;;5035392;28;20048;-47
2023/11/12 07:14:51;;;;;;;83.27;44.67;;;;;;;;;;5059658;28;20017;-46
2023/11/12 07:17:17;;;;;;;83.45;44.33;;;;;;;;;;5053211;28;20043;-47
2023/11/12 07:19:44;;;;;;;79.40;46.33;;;;;;;;;;5034580;28;20115;-47
2023/11/12 07:22:10;;;;;;;79.95;44.80;;;;;;;;;;5034400;28;20048;-47
2023/11/12 07:24:37;;;;;;;71.28;42.60;;;;;;;;;;5037680;28;20055;-47
2023/11/12 07:27:03;;;;;;;73.97;43.13;;;;;;;;;;5068688;28;20028;-47
2023/11/12 07:29:30;;;;;;;83.05;45.40;;;;;;;;;;5033654;28;20029;-48
2023/11/12 07:31:56;;;;;;;71.45;42.55;;;;;;;;;;5048305;28;20081;-48
2023/11/12 07:34:23;;;;;;;68.68;43.45;;;;;;;;;;5078437;28;20024;-48
2023/11/12 07:36:49;;;;;;;66.47;41.17;;;;;;;;;;5063000;28;20017;-47
2023/11/12 07:39:16;;;;;;;67.97;41.75;;;;;;;;;;5047545;28;20028;-47
2023/11/12 07:41:42;;;;;;;70.65;42.00;;;;;;;;;;5065466;28;20471;-46
2023/11/12 07:44:08;;;;;;;65.45;42.17;;;;;;;;;;5072948;28;20518;-47
2023/11/12 07:46:34;;;;;;;70.75;45.80;;;;;;;;;;5072625;28;20024;-47
2023/11/12 07:49:01;;;;;;;68.43;42.30;;;;;;;;;;5091319;28;20028;-47
2023/11/12 07:51:27;;;;;;;68.63;42.05;;;;;;;;;;5073159;28;20059;-47
2023/11/12 07:53:53;;;;;;;65.43;43.33;;;;;;;;;;5091111;28;20506;-47
2023/11/12 07:56:21;;;;;;;65.50;42.45;;;;;;;;;;5056572;28;20830;-47
2023/11/12 07:58:48;;;;;;;66.20;43.75;;;;;;;;;;5033267;28;20040;-47
2023/11/12 08:01:15;;;;;;;69.03;42.73;;;;;;;;;;5032336;28;20039;-49
2023/11/12 08:03:42;;;;;;;66.38;42.85;;;;;;;;;;5032316;28;20040;-48
2023/11/12 08:06:09;;;;;;;63.28;42.97;;;;;;;;;;5069072;28;20058;-48
2023/11/12 08:08:36;;;;;;;74.43;45.15;;;;;;;;;;5070774;28;20483;-47
2023/11/12 08:11:03;;;;;;;68.07;42.45;;;;;;;;;;5052744;28;20033;-47
2023/11/12 08:13:29;;;;;;;;;;;;;;;;;;5071095;28;20028;-49
2023/11/12 08:15:56;;;;;;;71.55;43.10;;;;;;;;;;5069503;28;19962;-47
2023/11/12 08:18:22;;;;;;;79.20;45.80;;;;;;;;;;5069121;28;20017;-47
2023/11/12 08:20:48;;;;;;;76.20;47.60;;;;;;;;;;5050977;28;20497;-47
2023/11/12 08:23:14;;;;;;;74.88;46.03;;;;;;;;;;5076981;28;20142;-50
2023/11/12 08:25:40;;;;;;;79.00;48.60;;;;;;;;;;5092308;28;20490;-47
2023/11/12 08:28:07;;;;;;;75.22;47.28;;;;;;;;;;5094563;28;20119;-51
2023/11/12 08:30:33;;;;;;;72.80;44.20;;;;;;;;;;5094573;28;20128;-47
2023/11/12 08:32:59;;;;;;;74.32;45.75;;;;;;;;;;5076267;28;20024;-48
2023/11/12 08:35:26;;;;;;;68.05;43.88;;;;;;;;;;5052530;28;20065;-48
2023/11/12 08:37:52;;;;;;;74.93;45.60;;;;;;;;;;5057527;28;20021;-49
2023/11/12 08:43:47;;;;;;;79.80;52.17;;;;;;;;;;5074130;28;20525;-47
2023/11/12 08:46:15;;;;;;;76.35;50.97;;;;;;;;;;5074068;28;20040;-48
2023/11/12 08:48:44;;;;;;;77.75;48.53;;;;;;;;;;5073944;28;20078;-48
2023/11/12 08:51:11;;;;;;;72.65;47.25;;;;;;;;;;5072540;28;20028;-47
2023/11/12 08:53:39;;;;;;;72.28;47.03;;;;;;;;;;5073938;28;20024;-49
2023/11/12 08:56:05;;;;;;;74.15;46.95;;;;;;;;;;5072353;28;20034;-48
2023/11/12 08:58:32;;;;;;;67.07;44.92;;;;;;;;;;5073862;28;20055;-48
2023/11/12 09:01:00;;;;;;;71.70;46.63;;;;;;;;;;5055613;28;20017;-47
2023/11/12 09:03:29;;;;;;;67.05;43.95;;;;;;;;;;5073652;28;20394;-49
2023/11/12 09:05:56;;;;;;;61.63;41.35;;;;;;;;;;5073555;28;20032;-48
2023/11/12 09:08:23;;;;;;;67.90;46.83;;;;;;;;;;5073002;28;20021;-47
2023/11/12 09:10:49;;;;;;;62.58;43.05;;;;;;;;;;5072772;28;20074;-47
2023/11/12 09:13:15;;;;;;;52.95;37.13;;;;;;;;;;5058315;28;20040;-47
2023/11/12 09:15:42;;;;;;;63.08;39.25;;;;;;;;;;5067282;28;20095;-47
2023/11/12 09:18:08;;;;;;;53.88;39.53;;;;;;;;;;5073316;28;20028;-48
2023/11/12 09:20:35;;;;;;;53.13;36.87;;;;;;;;;;5073160;28;20436;-48
2023/11/12 09:23:01;;;;;;;59.13;37.47;;;;;;;;;;5073562;28;20043;-48
2023/11/12 09:25:27;;;;;;;57.80;37.92;;;;;;;;;;5072105;28;20128;-49
2023/11/12 09:27:55;;;;;;;58.47;37.83;;;;;;;;;;5073229;28;20032;-47
2023/11/12 09:30:22;;;;;;;70.75;40.33;;;;;;;;;;5073153;28;20372;-49
2023/11/12 09:32:48;;;;;;;64.85;41.65;;;;;;;;;;5072871;28;20024;-47
2023/11/12 09:35:15;;;;;;;60.88;40.67;;;;;;;;;;5071975;28;20449;-47
2023/11/12 09:37:41;;;;;;;65.93;40.88;;;;;;;;;;5071325;28;20029;-47
2023/11/12 09:40:10;;;;;;;62.03;41.55;;;;;;;;;;5055266;28;20036;-49
2023/11/12 09:42:38;;;;;;;57.10;38.08;;;;;;;;;;5071227;28;20093;-48
2023/11/12 09:45:08;;;;;;;62.97;44.70;;;;;;;;;;5072857;28;20646;-47
2023/11/12 09:47:34;;;;;;;58.47;41.40;;;;;;;;;;5038331;28;20552;-47
2023/11/12 09:50:02;;;;;;;59.65;41.47;;;;;;;;;;5072852;28;20056;-47
2023/11/12 09:52:29;;;;;;;57.55;39.97;;;;;;;;;;5038049;28;20135;-47
2023/11/12 09:54:56;;;;;;;50.13;35.13;;;;;;;;;;5072357;28;20060;-49
2023/11/12 09:57:22;;;;;;;59.08;40.30;;;;;;;;;;5054549;28;20495;-48
2023/11/12 09:59:48;;;;;;;55.03;36.92;;;;;;;;;;5072589;28;20073;-48
2023/11/12 10:02:16;;;;;;;48.28;33.40;;;;;;;;;;5072416;28;20048;-47
2023/11/12 10:04:43;;;;;;;42.57;30.23;;;;;;;;;;5054731;28;20059;-47
2023/11/12 10:07:11;;;;;;;46.08;31.80;;;;;;;;;;5072457;28;20036;-47
2023/11/12 10:09:38;;;;;;;44.25;30.48;;;;;;;;;;5072260;28;20025;-47
2023/11/12 10:12:05;;;;;;;44.70;30.58;;;;;;;;;;5071942;28;20119;-47
2023/11/12 10:14:31;;;;;;;43.97;33.13;;;;;;;;;;5071611;28;20154;-47
2023/11/12 10:17:07;;;;;;;44.65;32.53;;;;;;;;;;5054296;28;20028;-47
2023/11/12 10:19:40;;;;;;;46.45;32.33;;;;;;;;;;5054429;28;20111;-48
2023/11/12 10:22:07;;;;;;;42.47;31.63;;;;;;;;;;5068525;22;20029;-47
2023/11/12 10:24:46;;;;;;;51.72;31.83;;;;;;;;;;5052005;28;20033;-47
2023/11/12 10:27:14;;;;;;;45.33;32.13;;;;;;;;;;5034644;28;20393;-47
2023/11/12 10:29:41;;;;;;;43.92;30.45;;;;;;;;;;5052064;28;20033;-47
2023/11/12 10:32:08;;;;;;;43.78;30.85;;;;;;;;;;5060705;28;20478;-47
2023/11/12 10:34:34;;;;;;;42.97;28.15;;;;;;;;;;5072037;28;20036;-47
2023/11/12 10:37:08;;;;;;;40.25;29.48;;;;;;;;;;5053908;28;20032;-50
2023/11/12 10:39:41;;;;;;;51.38;37.40;;;;;;;;;;5037755;28;20047;-48
2023/11/12 10:42:24;;;;;;;46.35;31.30;;;;;;;;;;5053828;28;20033;-48
2023/11/12 10:44:59;;;;;;;46.78;31.40;;;;;;;;;;5053323;28;20497;-48
2023/11/12 10:47:26;;;;;;;40.92;29.80;;;;;;;;;;5053395;28;20040;-47
2023/11/12 10:49:52;;;;;;;;;;;;;;;;;;5071288;28;20032;-47
2023/11/12 10:52:19;;;;;;;45.15;31.40;;;;;;;;;;5053640;28;19908;-47
2023/11/12 10:54:47;;;;;;;47.00;31.77;;;;;;;;;;5071796;28;20024;-47
2023/11/12 10:57:13;;;;;;;41.63;29.48;;;;;;;;;;5071784;28;20025;-47
2023/11/12 10:59:42;;;;;;;41.65;29.00;;;;;;;;;;5053743;28;20028;-47
2023/11/12 11:02:19;;;;;;;40.08;27.27;;;;;;;;;;5037024;28;20036;-48
2023/11/12 11:04:46;;;;;;;38.85;28.23;;;;;;;;;;5037077;28;20027;-47
2023/11/12 11:07:16;;;;;;;41.45;29.95;;;;;;;;;;5071598;28;20063;-47
2023/11/12 11:09:43;;;;;;;41.22;27.88;;;;;;;;;;5036935;28;20170;-47
2023/11/12 11:12:09;;;;;;;34.80;25.40;;;;;;;;;;5071386;28;20078;-48
2023/11/12 11:14:35;;;;;;;35.88;24.48;;;;;;;;;;5053390;28;20060;-48
2023/11/12 11:17:05;;;;;;;35.47;25.38;;;;;;;;;;5071648;28;20024;-47
2023/11/12 11:19:43;;;;;;;34.30;24.35;;;;;;;;;;5053508;28;20028;-47
2023/11/12 11:22:26;;;;;;;34.05;25.83;;;;;;;;;;5071059;28;20028;-48
2023/11/12 11:24:53;;;;;;;34.00;24.25;;;;;;;;;;5071333;28;20033;-47
2023/11/12 11:27:21;;;;;;;34.45;23.70;;;;;;;;;;5053453;28;20111;-48
2023/11/12 11:30:06;;;;;;;35.67;26.33;;;;;;;;;;5053480;28;20402;-47
2023/11/12 11:32:32;;;;;;;38.63;28.13;;;;;;;;;;5053229;28;20029;-48
2023/11/12 11:34:59;;;;;;;36.72;26.60;;;;;;;;;;5053384;28;20032;-47
2023/11/12 11:37:45;;;;;;;37.78;24.40;;;;;;;;;;5071268;28;20058;-48
2023/11/12 11:40:30;;;;;;;36.35;24.90;;;;;;;;;;5071248;28;20029;-48
2023/11/12 11:43:15;;;;;;;30.85;22.58;;;;;;;;;;5053161;28;20041;-47
2023/11/12 11:46:00;;;;;;;33.38;23.42;;;;;;;;;;5071199;28;20556;-47
2023/11/12 11:48:27;;;;;;;32.30;23.48;;;;;;;;;;5071186;28;20042;-47
2023/11/12 11:50:53;;;;;;;30.60;22.58;;;;;;;;;;5071045;28;20120;-47
2023/11/12 11:53:26;;;;;;;31.00;20.90;;;;;;;;;;5071102;28;20029;-48
2023/11/12 11:56:00;;;;;;;26.45;19.52;;;;;;;;;;5053276;28;20518;-48
2023/11/12 11:58:30;;;;;;;26.92;19.63;;;;;;;;;;5053205;28;20465;-47
2023/11/12 12:00:59;;;;;;;26.63;20.23;;;;;;;;;;5054770;28;20029;-48
2023/11/12 12:03:26;;;;;;;25.85;19.55;;;;;;;;;;5056873;28;20048;-47
2023/11/12 12:05:53;;;;;;;26.70;19.50;;;;;;;;;;5056977;28;20039;-48
2023/11/12 12:08:19;;;;;;;27.73;18.77;;;;;;;;;;5056953;28;20032;-51
2023/11/12 12:10:45;;;;;;;28.55;19.92;;;;;;;;;;5056435;28;20024;-50
2023/11/12 12:13:15;;;;;;;25.88;18.20;;;;;;;;;;5056610;28;20058;-47
2023/11/12 12:15:45;;;;;;;28.15;19.30;;;;;;;;;;5074703;28;20074;-47
2023/11/12 12:18:19;;;;;;;26.50;19.17;;;;;;;;;;5040164;28;20035;-47
2023/11/12 12:20:45;;;;;;;28.52;18.63;;;;;;;;;;5056529;28;20032;-48
2023/11/12 12:23:12;;;;;;;24.55;16.67;;;;;;;;;;5053880;28;20035;-48
2023/11/12 12:25:48;;;;;;;20.88;15.10;;;;;;;;;;5073542;28;20056;-48
2023/11/12 12:28:19;;;;;;;21.88;15.43;;;;;;;;;;5074461;28;20043;-50
2023/11/12 12:30:51;;;;;;;21.25;16.15;;;;;;;;;;5074164;28;20409;-48
2023/11/12 12:33:17;;;;;;;23.05;16.15;;;;;;;;;;5074391;28;20497;-48
2023/11/12 12:35:43;;;;;;;20.83;15.25;;;;;;;;;;5073105;28;20035;-48
2023/11/12 12:38:10;;;;;;;20.47;14.80;;;;;;;;;;5073091;28;20498;-48
2023/11/12 12:40:37;;;;;;;22.48;15.77;;;;;;;;;;5074156;28;20271;-46
2023/11/12 12:43:06;;;;;;;21.10;15.17;;;;;;;;;;5072889;28;20028;-45
2023/11/12 12:45:34;;;;;;;19.27;14.52;;;;;;;;;;5073083;28;20756;-46
2023/11/12 12:48:10;;;;;;;20.55;15.10;;;;;;;;;;5072844;28;20032;-45
2023/11/12 12:50:36;;;;;;;18.10;13.68;;;;;;;;;;5071414;28;20033;-46
2023/11/12 12:53:14;;;;;;;18.10;14.67;;;;;;;;;;5074000;28;20063;-46
2023/11/12 12:55:41;;;;;;;16.80;13.43;;;;;;;;;;5073947;28;20078;-47
2023/11/12 12:58:07;;;;;;;20.00;13.75;;;;;;;;;;5074212;28;20039;-46
2023/11/12 13:00:35;;;;;;;17.83;13.93;;;;;;;;;;5073708;28;20039;-46
2023/11/12 13:03:02;;;;;;;18.08;14.07;;;;;;;;;;5055725;28;20498;-46
2023/11/12 13:05:28;;;;;;;16.35;13.23;;;;;;;;;;5039233;28;20032;-46
2023/11/12 13:07:55;;;;;;;19.80;14.23;;;;;;;;;;5039235;28;20066;-47
2023/11/12 13:10:22;;;;;;;18.55;14.95;;;;;;;;;;5073609;28;20860;-47
2023/11/12 13:12:50;;;;;;;17.23;14.70;;;;;;;;;;5072368;28;20028;-46
2023/11/12 13:15:17;;;;;;;18.92;14.23;;;;;;;;;;5073486;28;20025;-46
2023/11/12 13:17:43;;;;;;;18.45;14.20;;;;;;;;;;5073535;28;20082;-46
2023/11/12 13:20:13;;;;;;;19.00;14.55;;;;;;;;;;5073439;28;20028;-47
2023/11/12 13:22:43;;;;;;;18.98;13.90;;;;;;;;;;5064874;28;20131;-46
2023/11/12 13:25:14;;;;;;;18.73;15.52;;;;;;;;;;5072267;28;20490;-46
2023/11/12 13:27:44;;;;;;;16.95;14.15;;;;;;;;;;5073292;28;20028;-47
2023/11/12 13:30:11;;;;;;;18.05;15.70;;;;;;;;;;5072188;28;20272;-46
2023/11/12 13:32:40;;;;;;;20.13;16.17;;;;;;;;;;5055049;28;20028;-47
2023/11/12 13:35:08;;;;;;;17.75;14.90;;;;;;;;;;5073177;28;20571;-48
2023/11/12 13:37:34;;;;;;;17.83;15.65;;;;;;;;;;5071987;28;20089;-46
2023/11/12 13:40:06;;;;;;;18.48;14.65;;;;;;;;;;5055295;28;20483;-47
2023/11/12 13:42:35;;;;;;;18.13;14.73;;;;;;;;;;5071438;28;20032;-46
2023/11/12 13:45:03;;;;;;;16.90;14.10;;;;;;;;;;5072984;28;20020;-48
2023/11/12 13:47:29;;;;;;;17.25;14.23;;;;;;;;;;5072969;28;20107;-47
2023/11/12 13:49:55;;;;;;;18.25;15.13;;;;;;;;;;5071666;28;20550;-47
2023/11/12 13:52:22;;;;;;;18.10;13.60;;;;;;;;;;5072600;28;20099;-46
2023/11/12 13:54:50;;;;;;;14.88;12.80;;;;;;;;;;5073169;28;20263;-47
2023/11/12 13:57:16;;;;;;;14.50;12.38;;;;;;;;;;5071384;28;20402;-46
2023/11/12 13:59:42;;;;;;;18.60;13.32;;;;;;;;;;5072772;28;20056;-46
2023/11/12 14:02:10;;;;;;;16.57;13.03;;;;;;;;;;5072446;28;20031;-48
2023/11/12 14:04:38;;;;;;;19.42;13.48;;;;;;;;;;5072842;28;20401;-49
2023/11/12 14:07:05;;;;;;;17.65;13.10;;;;;;;;;;5071445;28;20036;-48
2023/11/12 14:09:34;;;;;;;15.30;11.98;;;;;;;;;;5072282;28;20048;-47
2023/11/12 14:12:00;;;;;;;15.48;12.30;;;;;;;;;;5072557;28;20135;-48
2023/11/12 14:14:36;;;;;;;18.83;12.73;;;;;;;;;;5072530;28;20032;-48
2023/11/12 14:17:07;;;;;;;15.45;12.10;;;;;;;;;;5072474;28;20158;-51
2023/11/12 14:19:34;;;;;;;14.82;11.75;;;;;;;;;;5072424;28;20040;-48
2023/11/12 14:22:00;;;;;;;14.55;11.85;;;;;;;;;;5071864;28;20039;-48
2023/11/12 14:24:26;;;;;;;17.25;13.40;;;;;;;;;;5071975;28;20033;-48